SAS2865 ENBR-EKCH
Flight info
| Callsign | SAS2865 |
|---|---|
| Flight time | 1h 6m |
| Altitude | 39000 |
| Route | TUXIL DCT ZOL DCT TESPI |
| Aircraft | A20N/M-SDE2E3FGHIRWXY/LB1 |
Departure
| Time | 2026-05-06 18:30 |
|---|---|
| Airport | Bergen Airport, Flesland (ENBR) |
Arrival
| Time | 2026-05-06 19:37 |
|---|---|
| Airport | Copenhagen Kastrup Airport (EKCH) |
| Time | Latitude | Longitude | Altitude | Speed | Heading |
|---|---|---|---|---|---|
| 2026-05-06 17:49 | 60.28831 | 5.22615 | 175 ft | 0 kts | 34° |
| 2026-05-06 18:16 | 60.28825 | 5.22606 | 175 ft | 2 kts | 34° |
| 2026-05-06 18:17 | 60.28815 | 5.22593 | 175 ft | 2 kts | 34° |
| 2026-05-06 18:17 | 60.28804 | 5.22577 | 175 ft | 2 kts | 34° |
| 2026-05-06 18:17 | 60.28785 | 5.22551 | 175 ft | 3 kts | 34° |
| 2026-05-06 18:17 | 60.28764 | 5.22522 | 175 ft | 4 kts | 34° |
| 2026-05-06 18:18 | 60.28742 | 5.22491 | 174 ft | 4 kts | 34° |
| 2026-05-06 18:18 | 60.28720 | 5.22461 | 172 ft | 1 kts | 34° |
| 2026-05-06 18:18 | 60.28719 | 5.22460 | 172 ft | 0 kts | 34° |
| 2026-05-06 18:21 | 60.28724 | 5.22462 | 173 ft | 5 kts | 17° |
| 2026-05-06 18:21 | 60.28773 | 5.22452 | 174 ft | 9 kts | 349° |
| 2026-05-06 18:22 | 60.28851 | 5.22425 | 174 ft | 13 kts | 350° |
| 2026-05-06 18:22 | 60.28940 | 5.22393 | 175 ft | 14 kts | 350° |
| 2026-05-06 18:22 | 60.29031 | 5.22364 | 176 ft | 3 kts | 351° |
| 2026-05-06 18:22 | 60.29060 | 5.22353 | 177 ft | 5 kts | 342° |
| 2026-05-06 18:23 | 60.29082 | 5.22281 | 176 ft | 9 kts | 277° |
| 2026-05-06 18:23 | 60.29145 | 5.22205 | 172 ft | 15 kts | 349° |
| 2026-05-06 18:23 | 60.29268 | 5.22163 | 166 ft | 19 kts | 351° |
| 2026-05-06 18:23 | 60.29409 | 5.22114 | 159 ft | 21 kts | 350° |
| 2026-05-06 18:24 | 60.29552 | 5.22067 | 154 ft | 19 kts | 351° |
| 2026-05-06 18:24 | 60.29698 | 5.22017 | 150 ft | 24 kts | 351° |
| 2026-05-06 18:24 | 60.29867 | 5.21959 | 152 ft | 25 kts | 351° |
| 2026-05-06 18:24 | 60.30036 | 5.21903 | 159 ft | 24 kts | 349° |
| 2026-05-06 18:25 | 60.30189 | 5.21851 | 166 ft | 22 kts | 351° |
| 2026-05-06 18:25 | 60.30329 | 5.21805 | 172 ft | 19 kts | 351° |
| 2026-05-06 18:25 | 60.30455 | 5.21759 | 178 ft | 18 kts | 351° |
| 2026-05-06 18:25 | 60.30571 | 5.21724 | 183 ft | 14 kts | 351° |
| 2026-05-06 18:26 | 60.30653 | 5.21671 | 182 ft | 11 kts | 316° |
| 2026-05-06 18:26 | 60.30661 | 5.21569 | 179 ft | 0 kts | 262° |
| 2026-05-06 18:28 | 60.30660 | 5.21559 | 179 ft | 3 kts | 262° |
| 2026-05-06 18:28 | 60.30651 | 5.21462 | 178 ft | 10 kts | 257° |
| 2026-05-06 18:28 | 60.30597 | 5.21394 | 177 ft | 11 kts | 175° |
| 2026-05-06 18:28 | 60.30577 | 5.21400 | 177 ft | 0 kts | 168° |
| 2026-05-06 18:29 | 60.30479 | 5.21435 | 175 ft | 45 kts | 171° |
| 2026-05-06 18:29 | 60.29932 | 5.21617 | 154 ft | 111 kts | 171° |
| 2026-05-06 18:30 | 60.29005 | 5.21917 | 203 ft | 153 kts | 171° |
| 2026-05-06 18:30 | 60.27999 | 5.22249 | 851 ft | 140 kts | 173° |
| 2026-05-06 18:30 | 60.27057 | 5.22525 | 1529 ft | 134 kts | 175° |
| 2026-05-06 18:30 | 60.26141 | 5.22742 | 2072 ft | 132 kts | 178° |
| 2026-05-06 18:31 | 60.25189 | 5.22943 | 2485 ft | 149 kts | 176° |
| 2026-05-06 18:31 | 60.24093 | 5.23314 | 2956 ft | 169 kts | 171° |
| 2026-05-06 18:31 | 60.22879 | 5.23817 | 3569 ft | 188 kts | 171° |
| 2026-05-06 18:31 | 60.21536 | 5.24350 | 4200 ft | 206 kts | 172° |
| 2026-05-06 18:32 | 60.20077 | 5.24883 | 4799 ft | 227 kts | 172° |
| 2026-05-06 18:32 | 60.18443 | 5.25446 | 5391 ft | 250 kts | 173° |
| 2026-05-06 18:32 | 60.16652 | 5.26048 | 5875 ft | 269 kts | 173° |
| 2026-05-06 18:32 | 60.14793 | 5.26671 | 5989 ft | 271 kts | 172° |
| 2026-05-06 18:33 | 60.12933 | 5.27295 | 6003 ft | 271 kts | 173° |
| 2026-05-06 18:33 | 60.11074 | 5.27915 | 5999 ft | 271 kts | 173° |
| 2026-05-06 18:33 | 60.09206 | 5.28537 | 6049 ft | 273 kts | 173° |
| 2026-05-06 18:33 | 60.07319 | 5.29100 | 6521 ft | 276 kts | 174° |
| 2026-05-06 18:34 | 60.05408 | 5.29599 | 7504 ft | 279 kts | 175° |
| 2026-05-06 18:34 | 60.03473 | 5.30095 | 8589 ft | 282 kts | 175° |
| 2026-05-06 18:34 | 60.01532 | 5.30597 | 9599 ft | 289 kts | 175° |
| 2026-05-06 18:34 | 59.99497 | 5.31192 | 10408 ft | 303 kts | 169° |
| 2026-05-06 18:35 | 59.97493 | 5.32966 | 10888 ft | 330 kts | 150° |
| 2026-05-06 18:35 | 59.95546 | 5.35692 | 11316 ft | 353 kts | 145° |
| 2026-05-06 18:35 | 59.93578 | 5.38720 | 12148 ft | 360 kts | 145° |
| 2026-05-06 18:35 | 59.91583 | 5.41804 | 13027 ft | 367 kts | 146° |
| 2026-05-06 18:36 | 59.89551 | 5.44884 | 13916 ft | 373 kts | 148° |
| 2026-05-06 18:36 | 59.87460 | 5.47987 | 14758 ft | 376 kts | 148° |
| 2026-05-06 18:36 | 59.85346 | 5.51083 | 15592 ft | 379 kts | 149° |
| 2026-05-06 18:36 | 59.83201 | 5.54211 | 16317 ft | 385 kts | 149° |
| 2026-05-06 18:37 | 59.81025 | 5.57380 | 16857 ft | 389 kts | 149° |
| 2026-05-06 18:37 | 59.79577 | 5.59485 | 16987 ft | 390 kts | 149° |
| 2026-05-06 18:37 | 59.76643 | 5.63739 | 17046 ft | 390 kts | 149° |
| 2026-05-06 18:37 | 59.74486 | 5.66858 | 17034 ft | 388 kts | 149° |
| 2026-05-06 18:38 | 59.72306 | 5.70002 | 17052 ft | 388 kts | 149° |
| 2026-05-06 18:38 | 59.70113 | 5.73153 | 17171 ft | 392 kts | 150° |
| 2026-05-06 18:38 | 59.67898 | 5.76329 | 17924 ft | 393 kts | 150° |
| 2026-05-06 18:38 | 59.65743 | 5.79421 | 18680 ft | 397 kts | 150° |
| 2026-05-06 18:39 | 59.63494 | 5.82640 | 19337 ft | 402 kts | 150° |
| 2026-05-06 18:39 | 59.61215 | 5.85896 | 19994 ft | 406 kts | 150° |
| 2026-05-06 18:39 | 59.58910 | 5.89185 | 20635 ft | 412 kts | 150° |
| 2026-05-06 18:40 | 59.54213 | 5.95876 | 21949 ft | 421 kts | 151° |
| 2026-05-06 18:40 | 59.51825 | 5.99267 | 22593 ft | 426 kts | 151° |
| 2026-05-06 18:40 | 59.49442 | 6.02643 | 23206 ft | 431 kts | 151° |
| 2026-05-06 18:40 | 59.46995 | 6.06104 | 23787 ft | 435 kts | 151° |
| 2026-05-06 18:41 | 59.44537 | 6.09576 | 24422 ft | 433 kts | 150° |
| 2026-05-06 18:41 | 59.42101 | 6.13015 | 25116 ft | 433 kts | 151° |
| 2026-05-06 18:41 | 59.39663 | 6.16444 | 25637 ft | 437 kts | 151° |
| 2026-05-06 18:41 | 59.37186 | 6.19921 | 26230 ft | 439 kts | 152° |
| 2026-05-06 18:42 | 59.34699 | 6.23399 | 26768 ft | 441 kts | 152° |
| 2026-05-06 18:42 | 59.32191 | 6.26907 | 27310 ft | 444 kts | 152° |
| 2026-05-06 18:42 | 59.29675 | 6.30431 | 27847 ft | 445 kts | 152° |
| 2026-05-06 18:42 | 59.27150 | 6.33959 | 28348 ft | 448 kts | 152° |
| 2026-05-06 18:43 | 59.24605 | 6.37511 | 28840 ft | 450 kts | 152° |
| 2026-05-06 18:43 | 59.22082 | 6.41020 | 29326 ft | 452 kts | 152° |
| 2026-05-06 18:43 | 59.19519 | 6.44573 | 29836 ft | 453 kts | 153° |
| 2026-05-06 18:43 | 59.16942 | 6.48137 | 30240 ft | 455 kts | 153° |
| 2026-05-06 18:44 | 59.14344 | 6.51717 | 30425 ft | 461 kts | 152° |
| 2026-05-06 18:44 | 59.11708 | 6.55343 | 30686 ft | 465 kts | 152° |
| 2026-05-06 18:44 | 59.09063 | 6.58986 | 31045 ft | 468 kts | 152° |
| 2026-05-06 18:44 | 59.06398 | 6.62649 | 31431 ft | 469 kts | 152° |
| 2026-05-06 18:45 | 59.03736 | 6.66301 | 31825 ft | 470 kts | 152° |
| 2026-05-06 18:45 | 59.01065 | 6.69955 | 32241 ft | 470 kts | 151° |
| 2026-05-06 18:45 | 58.98391 | 6.73606 | 32664 ft | 470 kts | 151° |
| 2026-05-06 18:45 | 58.96618 | 6.76022 | 32931 ft | 470 kts | 151° |
| 2026-05-06 18:46 | 58.93084 | 6.80831 | 33471 ft | 471 kts | 151° |
| 2026-05-06 18:46 | 58.90400 | 6.84473 | 33869 ft | 471 kts | 151° |
| 2026-05-06 18:46 | 58.87737 | 6.88081 | 34209 ft | 471 kts | 151° |
| 2026-05-06 18:46 | 58.85067 | 6.91693 | 34557 ft | 470 kts | 151° |
| 2026-05-06 18:47 | 58.82396 | 6.95299 | 34935 ft | 467 kts | 150° |
| 2026-05-06 18:47 | 58.79740 | 6.98879 | 35357 ft | 464 kts | 151° |
| 2026-05-06 18:47 | 58.77094 | 7.02438 | 35665 ft | 464 kts | 151° |
| 2026-05-06 18:47 | 58.74444 | 7.05993 | 35917 ft | 465 kts | 150° |
| 2026-05-06 18:48 | 58.71788 | 7.09549 | 36172 ft | 465 kts | 150° |
| 2026-05-06 18:48 | 58.69128 | 7.13105 | 36441 ft | 466 kts | 150° |
| 2026-05-06 18:48 | 58.66468 | 7.16655 | 36703 ft | 466 kts | 150° |
| 2026-05-06 18:48 | 58.63802 | 7.20206 | 36958 ft | 466 kts | 150° |
| 2026-05-06 18:49 | 58.61173 | 7.23703 | 37210 ft | 467 kts | 150° |
| 2026-05-06 18:49 | 58.58499 | 7.27251 | 37453 ft | 467 kts | 150° |
| 2026-05-06 18:49 | 58.55828 | 7.30790 | 37681 ft | 467 kts | 150° |
| 2026-05-06 18:49 | 58.53157 | 7.34322 | 37914 ft | 467 kts | 150° |
| 2026-05-06 18:50 | 58.50502 | 7.37826 | 38141 ft | 467 kts | 150° |
| 2026-05-06 18:50 | 58.47823 | 7.41355 | 38366 ft | 468 kts | 150° |
| 2026-05-06 18:50 | 58.45143 | 7.44879 | 38591 ft | 468 kts | 150° |
| 2026-05-06 18:50 | 58.42461 | 7.48399 | 38748 ft | 468 kts | 150° |
| 2026-05-06 18:51 | 58.40691 | 7.50720 | 38893 ft | 467 kts | 150° |
| 2026-05-06 18:51 | 58.35342 | 7.57715 | 38983 ft | 465 kts | 150° |
| 2026-05-06 18:52 | 58.29149 | 7.65777 | 38979 ft | 465 kts | 150° |
| 2026-05-06 18:52 | 58.24726 | 7.71513 | 38974 ft | 465 kts | 150° |
| 2026-05-06 18:53 | 58.19393 | 7.78407 | 38964 ft | 465 kts | 150° |
| 2026-05-06 18:53 | 58.14046 | 7.85294 | 38968 ft | 465 kts | 150° |
| 2026-05-06 18:54 | 58.08683 | 7.92174 | 38968 ft | 466 kts | 150° |
| 2026-05-06 18:54 | 58.03311 | 7.99043 | 38961 ft | 466 kts | 150° |
| 2026-05-06 18:55 | 57.97963 | 8.05862 | 38969 ft | 463 kts | 150° |
| 2026-05-06 18:55 | 57.92621 | 8.12645 | 38962 ft | 463 kts | 150° |
| 2026-05-06 18:56 | 57.87306 | 8.19364 | 38973 ft | 463 kts | 150° |
| 2026-05-06 18:56 | 57.81952 | 8.26107 | 38974 ft | 463 kts | 150° |
| 2026-05-06 18:57 | 57.76596 | 8.32831 | 38974 ft | 463 kts | 150° |
| 2026-05-06 18:57 | 57.71238 | 8.39534 | 38977 ft | 463 kts | 150° |
| 2026-05-06 18:58 | 57.65872 | 8.46223 | 38978 ft | 463 kts | 150° |
| 2026-05-06 18:58 | 57.60551 | 8.52834 | 38979 ft | 461 kts | 150° |
| 2026-05-06 18:59 | 57.55216 | 8.59437 | 38980 ft | 461 kts | 151° |
| 2026-05-06 18:59 | 57.49872 | 8.66026 | 38939 ft | 459 kts | 151° |
| 2026-05-06 18:59 | 57.47221 | 8.69287 | 38625 ft | 456 kts | 151° |
| 2026-05-06 19:00 | 57.44577 | 8.72536 | 38034 ft | 455 kts | 151° |
| 2026-05-06 19:00 | 57.41946 | 8.75765 | 37417 ft | 453 kts | 152° |
| 2026-05-06 19:00 | 57.39347 | 8.78948 | 36782 ft | 451 kts | 152° |
| 2026-05-06 19:00 | 57.36734 | 8.82142 | 36140 ft | 449 kts | 152° |
| 2026-05-06 19:01 | 57.34129 | 8.85320 | 35518 ft | 447 kts | 153° |
| 2026-05-06 19:01 | 57.31537 | 8.88478 | 34927 ft | 444 kts | 153° |
| 2026-05-06 19:01 | 57.28995 | 8.91569 | 34320 ft | 443 kts | 153° |
| 2026-05-06 19:01 | 57.26426 | 8.94687 | 33649 ft | 441 kts | 153° |
| 2026-05-06 19:02 | 57.23855 | 8.97798 | 32820 ft | 441 kts | 153° |
| 2026-05-06 19:02 | 57.21285 | 9.00902 | 31961 ft | 443 kts | 153° |
| 2026-05-06 19:02 | 57.18700 | 9.04018 | 31105 ft | 444 kts | 153° |
| 2026-05-06 19:02 | 57.16112 | 9.07134 | 30278 ft | 445 kts | 153° |
| 2026-05-06 19:03 | 57.13523 | 9.10250 | 29546 ft | 442 kts | 153° |
| 2026-05-06 19:03 | 57.10964 | 9.13326 | 28832 ft | 438 kts | 153° |
| 2026-05-06 19:03 | 57.08427 | 9.16370 | 28130 ft | 434 kts | 153° |
| 2026-05-06 19:03 | 57.05905 | 9.19387 | 27440 ft | 430 kts | 153° |
| 2026-05-06 19:04 | 57.03405 | 9.22370 | 26753 ft | 427 kts | 153° |
| 2026-05-06 19:04 | 57.00935 | 9.25312 | 26127 ft | 422 kts | 152° |
| 2026-05-06 19:04 | 56.98473 | 9.28239 | 25466 ft | 420 kts | 152° |
| 2026-05-06 19:04 | 56.96035 | 9.31132 | 24833 ft | 417 kts | 152° |
| 2026-05-06 19:05 | 56.93636 | 9.33975 | 24221 ft | 414 kts | 152° |
| 2026-05-06 19:05 | 56.91227 | 9.36827 | 23610 ft | 412 kts | 152° |
| 2026-05-06 19:05 | 56.88829 | 9.39660 | 22945 ft | 409 kts | 152° |
| 2026-05-06 19:05 | 56.86454 | 9.42467 | 22340 ft | 403 kts | 152° |
| 2026-05-06 19:06 | 56.84125 | 9.45213 | 21719 ft | 399 kts | 152° |
| 2026-05-06 19:06 | 56.81801 | 9.47950 | 21077 ft | 396 kts | 151° |
| 2026-05-06 19:06 | 56.79492 | 9.50663 | 20456 ft | 393 kts | 151° |
| 2026-05-06 19:06 | 56.77196 | 9.53357 | 19845 ft | 390 kts | 151° |
| 2026-05-06 19:07 | 56.74919 | 9.56024 | 19256 ft | 388 kts | 150° |
| 2026-05-06 19:07 | 56.72663 | 9.58664 | 18679 ft | 384 kts | 150° |
| 2026-05-06 19:07 | 56.70417 | 9.61289 | 18069 ft | 382 kts | 150° |
| 2026-05-06 19:07 | 56.68222 | 9.63850 | 17470 ft | 378 kts | 150° |
| 2026-05-06 19:08 | 56.66016 | 9.66421 | 16873 ft | 375 kts | 150° |
| 2026-05-06 19:08 | 56.63829 | 9.68966 | 16284 ft | 372 kts | 149° |
| 2026-05-06 19:08 | 56.61662 | 9.71484 | 15714 ft | 369 kts | 149° |
| 2026-05-06 19:08 | 56.59510 | 9.73980 | 15163 ft | 365 kts | 149° |
| 2026-05-06 19:09 | 56.57379 | 9.76451 | 14610 ft | 362 kts | 149° |
| 2026-05-06 19:09 | 56.55260 | 9.78903 | 14073 ft | 360 kts | 149° |
| 2026-05-06 19:09 | 56.53161 | 9.81330 | 13502 ft | 357 kts | 148° |
| 2026-05-06 19:09 | 56.51079 | 9.83735 | 13078 ft | 350 kts | 148° |
| 2026-05-06 19:10 | 56.49013 | 9.86120 | 12975 ft | 356 kts | 148° |
| 2026-05-06 19:10 | 56.46932 | 9.88516 | 12959 ft | 354 kts | 148° |
| 2026-05-06 19:10 | 56.44884 | 9.90872 | 12960 ft | 354 kts | 148° |
| 2026-05-06 19:10 | 56.42804 | 9.93262 | 12952 ft | 355 kts | 149° |
| 2026-05-06 19:11 | 56.40720 | 9.95653 | 12954 ft | 355 kts | 149° |
| 2026-05-06 19:11 | 56.38636 | 9.98040 | 12968 ft | 355 kts | 149° |
| 2026-05-06 19:11 | 56.36556 | 10.00430 | 12950 ft | 355 kts | 147° |
| 2026-05-06 19:11 | 56.34764 | 10.03477 | 12952 ft | 357 kts | 126° |
| 2026-05-06 19:12 | 56.33672 | 10.07472 | 12962 ft | 357 kts | 108° |
| 2026-05-06 19:12 | 56.32930 | 10.11747 | 12965 ft | 357 kts | 107° |
| 2026-05-06 19:12 | 56.32226 | 10.16038 | 12955 ft | 357 kts | 106° |
| 2026-05-06 19:12 | 56.31532 | 10.20271 | 12955 ft | 357 kts | 106° |
| 2026-05-06 19:13 | 56.30819 | 10.24554 | 12969 ft | 357 kts | 107° |
| 2026-05-06 19:13 | 56.30096 | 10.28830 | 12961 ft | 357 kts | 107° |
| 2026-05-06 19:13 | 56.29366 | 10.33110 | 12958 ft | 357 kts | 107° |
| 2026-05-06 19:13 | 56.28633 | 10.37377 | 12963 ft | 357 kts | 107° |
| 2026-05-06 19:14 | 56.27897 | 10.41652 | 12963 ft | 357 kts | 107° |
| 2026-05-06 19:14 | 56.27159 | 10.45917 | 12972 ft | 357 kts | 107° |
| 2026-05-06 19:14 | 56.26420 | 10.50182 | 12965 ft | 358 kts | 107° |
| 2026-05-06 19:14 | 56.25679 | 10.54452 | 12966 ft | 357 kts | 108° |
| 2026-05-06 19:15 | 56.24936 | 10.58716 | 12964 ft | 357 kts | 108° |
| 2026-05-06 19:15 | 56.24194 | 10.62974 | 12968 ft | 358 kts | 108° |
| 2026-05-06 19:15 | 56.23447 | 10.67240 | 12955 ft | 357 kts | 108° |
| 2026-05-06 19:15 | 56.22714 | 10.71425 | 12791 ft | 355 kts | 108° |
| 2026-05-06 19:16 | 56.21973 | 10.75645 | 12391 ft | 352 kts | 108° |
| 2026-05-06 19:16 | 56.21237 | 10.79823 | 11839 ft | 350 kts | 108° |
| 2026-05-06 19:16 | 56.20505 | 10.83970 | 11308 ft | 347 kts | 108° |
| 2026-05-06 19:16 | 56.19776 | 10.88088 | 10816 ft | 343 kts | 108° |
| 2026-05-06 19:17 | 56.19054 | 10.92157 | 10340 ft | 339 kts | 107° |
| 2026-05-06 19:17 | 56.18356 | 10.96084 | 10177 ft | 325 kts | 107° |
| 2026-05-06 19:17 | 56.17686 | 10.99847 | 10035 ft | 311 kts | 107° |
| 2026-05-06 19:17 | 56.17040 | 11.03466 | 9925 ft | 297 kts | 107° |
| 2026-05-06 19:18 | 56.16416 | 11.06958 | 9602 ft | 291 kts | 107° |
| 2026-05-06 19:18 | 56.15798 | 11.10408 | 9139 ft | 290 kts | 107° |
| 2026-05-06 19:18 | 56.15182 | 11.13843 | 8711 ft | 289 kts | 107° |
| 2026-05-06 19:18 | 56.14576 | 11.17222 | 8287 ft | 287 kts | 108° |
| 2026-05-06 19:19 | 56.13967 | 11.20604 | 7921 ft | 284 kts | 108° |
| 2026-05-06 19:19 | 56.13366 | 11.23929 | 7575 ft | 279 kts | 108° |
| 2026-05-06 19:19 | 56.12765 | 11.27252 | 7132 ft | 279 kts | 108° |
| 2026-05-06 19:19 | 56.12167 | 11.30551 | 6758 ft | 277 kts | 108° |
| 2026-05-06 19:20 | 56.11573 | 11.33826 | 6392 ft | 275 kts | 108° |
| 2026-05-06 19:20 | 56.10984 | 11.37066 | 6063 ft | 271 kts | 108° |
| 2026-05-06 19:20 | 56.10398 | 11.40278 | 5979 ft | 274 kts | 108° |
| 2026-05-06 19:20 | 56.09806 | 11.43527 | 5979 ft | 273 kts | 107° |
| 2026-05-06 19:21 | 56.09211 | 11.46775 | 5974 ft | 275 kts | 107° |
| 2026-05-06 19:21 | 56.08620 | 11.50011 | 5977 ft | 274 kts | 107° |
| 2026-05-06 19:21 | 56.08027 | 11.53246 | 5971 ft | 273 kts | 107° |
| 2026-05-06 19:21 | 56.07435 | 11.56471 | 5810 ft | 272 kts | 108° |
| 2026-05-06 19:22 | 56.06847 | 11.59669 | 5475 ft | 270 kts | 108° |
| 2026-05-06 19:22 | 56.06269 | 11.62816 | 5128 ft | 268 kts | 108° |
| 2026-05-06 19:22 | 56.05688 | 11.65968 | 4752 ft | 266 kts | 108° |
| 2026-05-06 19:22 | 56.05111 | 11.69090 | 4384 ft | 263 kts | 108° |
| 2026-05-06 19:23 | 56.04540 | 11.72181 | 4067 ft | 259 kts | 109° |
| 2026-05-06 19:23 | 56.03973 | 11.75246 | 3974 ft | 262 kts | 109° |
| 2026-05-06 19:23 | 56.03400 | 11.78328 | 3970 ft | 261 kts | 109° |
| 2026-05-06 19:23 | 56.02827 | 11.81406 | 3971 ft | 261 kts | 109° |
| 2026-05-06 19:24 | 56.02255 | 11.84475 | 3974 ft | 261 kts | 109° |
| 2026-05-06 19:24 | 56.01681 | 11.87551 | 3972 ft | 261 kts | 109° |
| 2026-05-06 19:24 | 56.01106 | 11.90625 | 3974 ft | 260 kts | 109° |
| 2026-05-06 19:24 | 56.00542 | 11.93635 | 3974 ft | 261 kts | 109° |
| 2026-05-06 19:25 | 55.99965 | 11.96707 | 3979 ft | 261 kts | 109° |
| 2026-05-06 19:25 | 55.99388 | 11.99773 | 3972 ft | 259 kts | 109° |
| 2026-05-06 19:25 | 55.98814 | 12.02817 | 3978 ft | 259 kts | 109° |
| 2026-05-06 19:25 | 55.98243 | 12.05819 | 3976 ft | 249 kts | 108° |
| 2026-05-06 19:26 | 55.97686 | 12.08757 | 3975 ft | 252 kts | 108° |
| 2026-05-06 19:26 | 55.97120 | 12.11757 | 3981 ft | 257 kts | 108° |
| 2026-05-06 19:26 | 55.96554 | 12.14750 | 3976 ft | 251 kts | 108° |
| 2026-05-06 19:26 | 55.95995 | 12.17700 | 3981 ft | 252 kts | 108° |
| 2026-05-06 19:27 | 55.95431 | 12.20666 | 3972 ft | 253 kts | 108° |
| 2026-05-06 19:27 | 55.94862 | 12.23658 | 3977 ft | 254 kts | 108° |
| 2026-05-06 19:27 | 55.94292 | 12.26649 | 3977 ft | 257 kts | 108° |
| 2026-05-06 19:27 | 55.93727 | 12.29599 | 3972 ft | 252 kts | 108° |
| 2026-05-06 19:28 | 55.93162 | 12.32553 | 3975 ft | 251 kts | 108° |
| 2026-05-06 19:28 | 55.92606 | 12.35471 | 3974 ft | 253 kts | 108° |
| 2026-05-06 19:28 | 55.92037 | 12.38448 | 3980 ft | 254 kts | 108° |
| 2026-05-06 19:28 | 55.91464 | 12.41439 | 3977 ft | 255 kts | 108° |
| 2026-05-06 19:29 | 55.90894 | 12.44402 | 3978 ft | 253 kts | 108° |
| 2026-05-06 19:29 | 55.90322 | 12.47365 | 3986 ft | 252 kts | 108° |
| 2026-05-06 19:29 | 55.89754 | 12.50306 | 3983 ft | 253 kts | 108° |
| 2026-05-06 19:29 | 55.89180 | 12.53276 | 3985 ft | 254 kts | 109° |
| 2026-05-06 19:30 | 55.88599 | 12.56272 | 3986 ft | 257 kts | 109° |
| 2026-05-06 19:30 | 55.87753 | 12.59012 | 3957 ft | 253 kts | 131° |
| 2026-05-06 19:30 | 55.86511 | 12.61192 | 3752 ft | 251 kts | 135° |
| 2026-05-06 19:30 | 55.85272 | 12.63316 | 3376 ft | 251 kts | 135° |
| 2026-05-06 19:31 | 55.84023 | 12.65461 | 3011 ft | 249 kts | 135° |
| 2026-05-06 19:31 | 55.82780 | 12.67603 | 2597 ft | 249 kts | 135° |
| 2026-05-06 19:31 | 55.80331 | 12.71864 | 2031 ft | 246 kts | 135° |
| 2026-05-06 19:32 | 55.79106 | 12.74002 | 1988 ft | 242 kts | 135° |
| 2026-05-06 19:32 | 55.77934 | 12.76029 | 1993 ft | 228 kts | 135° |
| 2026-05-06 19:32 | 55.76832 | 12.77924 | 1999 ft | 214 kts | 135° |
| 2026-05-06 19:32 | 55.75803 | 12.79708 | 1987 ft | 199 kts | 135° |
| 2026-05-06 19:33 | 55.74844 | 12.81356 | 1994 ft | 185 kts | 135° |
| 2026-05-06 19:33 | 55.73838 | 12.82555 | 1988 ft | 174 kts | 166° |
| 2026-05-06 19:33 | 55.72620 | 12.82229 | 1995 ft | 182 kts | 207° |
| 2026-05-06 19:33 | 55.71594 | 12.80874 | 2029 ft | 184 kts | 219° |
| 2026-05-06 19:34 | 55.70680 | 12.79364 | 1997 ft | 184 kts | 220° |
| 2026-05-06 19:34 | 55.69715 | 12.77867 | 1972 ft | 185 kts | 218° |
| 2026-05-06 19:34 | 55.68749 | 12.76364 | 1729 ft | 183 kts | 219° |
| 2026-05-06 19:34 | 55.67791 | 12.74881 | 1473 ft | 183 kts | 219° |
| 2026-05-06 19:35 | 55.66848 | 12.73417 | 1207 ft | 180 kts | 219° |
| 2026-05-06 19:35 | 55.65902 | 12.71952 | 954 ft | 180 kts | 219° |
| 2026-05-06 19:35 | 55.65014 | 12.70574 | 703 ft | 160 kts | 218° |
| 2026-05-06 19:35 | 55.64220 | 12.69344 | 498 ft | 143 kts | 217° |
| 2026-05-06 19:36 | 55.63511 | 12.68254 | 281 ft | 128 kts | 217° |
| 2026-05-06 19:36 | 55.62870 | 12.67266 | 112 ft | 121 kts | 218° |
| 2026-05-06 19:36 | 55.62244 | 12.66284 | 28 ft | 117 kts | 218° |
| 2026-05-06 19:36 | 55.61737 | 12.65518 | 18 ft | 72 kts | 220° |
| 2026-05-06 19:37 | 55.61459 | 12.65084 | 19 ft | 43 kts | 221° |
| 2026-05-06 19:37 | 55.61297 | 12.64781 | 20 ft | 32 kts | 242° |
| 2026-05-06 19:37 | 55.61231 | 12.64517 | 19 ft | 22 kts | 251° |
| 2026-05-06 19:37 | 55.61203 | 12.64341 | 21 ft | 16 kts | 252° |
| 2026-05-06 19:38 | 55.61195 | 12.64295 | 20 ft | 5 kts | 252° |
| 2026-05-06 19:38 | 55.61184 | 12.64212 | 20 ft | 9 kts | 270° |
| 2026-05-06 19:38 | 55.61220 | 12.64115 | 21 ft | 11 kts | 330° |
| 2026-05-06 19:38 | 55.61302 | 12.64140 | 23 ft | 14 kts | 33° |
| 2026-05-06 19:39 | 55.61393 | 12.64245 | 21 ft | 15 kts | 33° |
| 2026-05-06 19:39 | 55.61460 | 12.64322 | 21 ft | 12 kts | 33° |
| 2026-05-06 19:39 | 55.61541 | 12.64415 | 21 ft | 16 kts | 32° |
| 2026-05-06 19:39 | 55.61646 | 12.64533 | 21 ft | 20 kts | 32° |
| 2026-05-06 19:40 | 55.61775 | 12.64681 | 20 ft | 24 kts | 34° |
| 2026-05-06 19:40 | 55.61908 | 12.64836 | 20 ft | 21 kts | 33° |
| 2026-05-06 19:40 | 55.62037 | 12.64983 | 20 ft | 23 kts | 32° |
| 2026-05-06 19:40 | 55.62160 | 12.65124 | 19 ft | 12 kts | 33° |
| 2026-05-06 19:41 | 55.62245 | 12.65151 | 19 ft | 15 kts | 323° |
| 2026-05-06 19:41 | 55.62309 | 12.64985 | 21 ft | 18 kts | 302° |
| 2026-05-06 19:41 | 55.62381 | 12.64790 | 22 ft | 19 kts | 301° |
| 2026-05-06 19:41 | 55.62464 | 12.64668 | 20 ft | 16 kts | 344° |
| 2026-05-06 19:42 | 55.62582 | 12.64661 | 20 ft | 18 kts | 10° |
| 2026-05-06 19:42 | 55.62664 | 12.64682 | 20 ft | 3 kts | 2° |
| 2026-05-06 19:42 | 55.62698 | 12.64688 | 20 ft | 7 kts | 7° |
| 2026-05-06 19:42 | 55.62723 | 12.64693 | 20 ft | 2 kts | 4° |
| 2026-05-06 19:43 | 55.62742 | 12.64673 | 22 ft | 4 kts | 307° |
| 2026-05-06 19:43 | 55.62749 | 12.64606 | 21 ft | 6 kts | 281° |
| 2026-05-06 19:43 | 55.62750 | 12.64594 | 20 ft | 0 kts | 281° |